Terminal Aerodrome Forecast
Issued by NWS Bismarck, ND

Home | Current Version | Previous Version | Text Only | Print | Product List | Glossary Off
Versions: 1 2 3 4 5 6 7 8 9 10 11 12 13 14 15 16 17 18 19 20

000
FTUS43 KBIS 041128
TAFBIS
TAF
KBIS 041128Z 0412/0512 13004KT 1SM FU VV035
      TEMPO 0412/0414 3SM BR FU SCT035
     FM041600 16015KT P6SM SKC
     FM050000 18015KT P6SM SCT060
     FM050300 18009KT P6SM SCT050 SCT100
     FM050900 36012KT P6SM BKN035 OVC050=

USA.gov is the U.S. government's official web portal to all federal, state and local government web resources and services.